sensor_id;sensor_type;location;lat;lon;timestamp;pressure;altitude;pressure_sealevel;temperature;humidity
2268;BME280;11052;43.338;25.502;2024-03-23T00:54:34;100793.81;;;1.40;100.00
2268;BME280;11052;43.338;25.502;2024-03-23T00:57:00;100796.38;;;1.41;100.00
2268;BME280;11052;43.338;25.502;2024-03-23T00:59:27;100783.72;;;1.49;100.00
2268;BME280;11052;43.338;25.502;2024-03-23T01:01:54;100782.03;;;1.49;100.00
2268;BME280;11052;43.338;25.502;2024-03-23T01:04:21;100783.69;;;1.46;100.00
2268;BME280;11052;43.338;25.502;2024-03-23T01:06:47;100782.69;;;1.36;100.00
2268;BME280;11052;43.338;25.502;2024-03-23T01:09:16;100780.81;;;1.24;100.00
2268;BME280;11052;43.338;25.502;2024-03-23T01:11:41;100790.97;;;1.21;100.00
2268;BME280;11052;43.338;25.502;2024-03-23T01:14:09;100784.09;;;1.17;100.00
2268;BME280;11052;43.338;25.502;2024-03-23T01:16:35;100778.19;;;1.20;100.00
2268;BME280;11052;43.338;25.502;2024-03-23T01:19:02;100775.63;;;1.20;100.00
2268;BME280;11052;43.338;25.502;2024-03-23T01:21:28;100777.34;;;1.21;100.00
2268;BME280;11052;43.338;25.502;2024-03-23T01:23:55;100774.66;;;1.13;100.00
2268;BME280;11052;43.338;25.502;2024-03-23T01:26:22;100780.69;;;1.17;100.00
2268;BME280;11052;43.338;25.502;2024-03-23T01:28:49;100780.59;;;1.11;100.00
2268;BME280;11052;43.338;25.502;2024-03-23T01:31:16;100777.97;;;1.08;100.00
2268;BME280;11052;43.338;25.502;2024-03-23T01:33:43;100777.03;;;1.03;100.00
2268;BME280;11052;43.338;25.502;2024-03-23T01:36:12;100777.06;;;1.04;100.00
2268;BME280;11052;43.338;25.502;2024-03-23T01:38:39;100776.13;;;0.97;100.00
2268;BME280;11052;43.338;25.502;2024-03-23T01:41:05;100775.44;;;1.08;100.00
2268;BME280;11052;43.338;25.502;2024-03-23T01:43:33;100775.41;;;1.06;100.00
2268;BME280;11052;43.338;25.502;2024-03-23T01:45:59;100773.69;;;1.05;100.00
2268;BME280;11052;43.338;25.502;2024-03-23T01:48:26;100775.88;;;0.82;100.00
2268;BME280;11052;43.338;25.502;2024-03-23T01:50:53;100778.50;;;0.85;100.00
2268;BME280;11052;43.338;25.502;2024-03-23T01:53:20;100774.28;;;0.90;100.00
2268;BME280;11052;43.338;25.502;2024-03-23T01:55:47;100775.22;;;0.95;100.00
2268;BME280;11052;43.338;25.502;2024-03-23T01:58:14;100769.28;;;0.96;100.00
2268;BME280;11052;43.338;25.502;2024-03-23T02:00:42;100781.25;;;0.99;100.00
2268;BME280;11052;43.338;25.502;2024-03-23T02:03:24;100780.38;;;0.98;100.00
2268;BME280;11052;43.338;25.502;2024-03-23T02:05:52;100777.00;;;0.99;100.00
2268;BME280;11052;43.338;25.502;2024-03-23T02:08:20;100778.47;;;0.87;100.00
2268;BME280;11052;43.338;25.502;2024-03-23T02:10:47;100779.13;;;0.74;100.00
2268;BME280;11052;43.338;25.502;2024-03-23T02:13:14;100775.78;;;0.76;100.00
2268;BME280;11052;43.338;25.502;2024-03-23T02:15:43;100773.34;;;0.82;100.00
2268;BME280;11052;43.338;25.502;2024-03-23T02:18:10;100777.44;;;0.74;100.00
2268;BME280;11052;43.338;25.502;2024-03-23T02:20:37;100774.75;;;0.67;100.00
2268;BME280;11052;43.338;25.502;2024-03-23T02:23:05;100771.50;;;0.75;100.00
2268;BME280;11052;43.338;25.502;2024-03-23T02:25:32;100770.81;;;0.87;100.00
2268;BME280;11052;43.338;25.502;2024-03-23T02:27:59;100768.31;;;0.90;100.00
2268;BME280;11052;43.338;25.502;2024-03-23T02:30:26;100771.75;;;0.90;100.00
2268;BME280;11052;43.338;25.502;2024-03-23T02:32:52;100776.75;;;0.83;100.00
2268;BME280;11052;43.338;25.502;2024-03-23T02:35:19;100777.44;;;0.74;100.00
2268;BME280;11052;43.338;25.502;2024-03-23T02:37:46;100773.94;;;0.69;100.00
2268;BME280;11052;43.338;25.502;2024-03-23T02:40:15;100773.94;;;0.69;100.00
2268;BME280;11052;43.338;25.502;2024-03-23T02:42:41;100779.88;;;0.68;100.00
2268;BME280;11052;43.338;25.502;2024-03-23T02:45:09;100780.63;;;0.62;100.00
2268;BME280;11052;43.338;25.502;2024-03-23T02:47:35;100779.00;;;0.66;100.00
2268;BME280;11052;43.338;25.502;2024-03-23T02:50:02;100773.00;;;0.62;100.00
2268;BME280;11052;43.338;25.502;2024-03-23T02:52:30;100770.53;;;0.67;100.00
2268;BME280;11052;43.338;25.502;2024-03-23T02:54:57;100780.72;;;0.67;100.00
2268;BME280;11052;43.338;25.502;2024-03-23T02:57:24;100779.00;;;0.66;100.00
2268;BME280;11052;43.338;25.502;2024-03-23T02:59:51;100774.69;;;0.62;100.00
2268;BME280;11052;43.338;25.502;2024-03-23T03:02:17;100772.09;;;0.60;100.00
2268;BME280;11052;43.338;25.502;2024-03-23T03:04:44;100769.28;;;0.47;100.00
2268;BME280;11052;43.338;25.502;2024-03-23T03:07:10;100776.94;;;0.47;100.00
2268;BME280;11052;43.338;25.502;2024-03-23T03:09:38;100767.47;;;0.40;100.00
2268;BME280;11052;43.338;25.502;2024-03-23T03:12:05;100770.69;;;0.31;100.00
2268;BME280;11052;43.338;25.502;2024-03-23T03:14:33;100770.66;;;0.28;100.00
2268;BME280;11052;43.338;25.502;2024-03-23T03:16:59;100766.38;;;0.27;100.00
2268;BME280;11052;43.338;25.502;2024-03-23T03:19:26;100769.72;;;0.24;100.00
2268;BME280;11052;43.338;25.502;2024-03-23T03:21:53;100768.06;;;0.26;100.00
2268;BME280;11052;43.338;25.502;2024-03-23T03:24:20;100769.72;;;0.24;100.00
2268;BME280;11052;43.338;25.502;2024-03-23T03:26:46;100765.47;;;0.23;100.00
2268;BME280;11052;43.338;25.502;2024-03-23T03:29:13;100762.06;;;0.24;100.00
2268;BME280;11052;43.338;25.502;2024-03-23T03:31:40;100763.78;;;0.25;100.00
2268;BME280;11052;43.338;25.502;2024-03-23T03:34:07;100765.56;;;0.29;100.00
2268;BME280;11052;43.338;25.502;2024-03-23T03:36:33;100764.78;;;0.32;100.00
2268;BME280;11052;43.338;25.502;2024-03-23T03:39:01;100760.50;;;0.31;100.00
2268;BME280;11052;43.338;25.502;2024-03-23T03:41:28;100758.72;;;0.27;100.00
2268;BME280;11052;43.338;25.502;2024-03-23T03:43:55;100767.25;;;0.29;100.00
2268;BME280;11052;43.338;25.502;2024-03-23T03:46:21;100755.41;;;0.31;100.00
2268;BME280;11052;43.338;25.502;2024-03-23T03:48:50;100763.03;;;0.29;100.00
2268;BME280;11052;43.338;25.502;2024-03-23T03:51:16;100763.75;;;0.22;100.00
2268;BME280;11052;43.338;25.502;2024-03-23T03:53:43;100765.34;;;0.17;100.00
2268;BME280;11052;43.338;25.502;2024-03-23T03:56:09;100764.22;;;0.03;100.00
2268;BME280;11052;43.338;25.502;2024-03-23T03:58:36;100765.88;;;-0.01;100.00
2268;BME280;11052;43.338;25.502;2024-03-23T04:01:02;100765.88;;;-0.01;100.00
2268;BME280;11052;43.338;25.502;2024-03-23T04:03:29;100761.59;;;-0.02;100.00
2268;BME280;11052;43.338;25.502;2024-03-23T04:05:57;100764.22;;;0.03;100.00
2268;BME280;11052;43.338;25.502;2024-03-23T04:08:24;100765.03;;;0.02;100.00
2268;BME280;11052;43.338;25.502;2024-03-23T04:10:51;100762.56;;;0.07;100.00
2268;BME280;11052;43.338;25.502;2024-03-23T04:13:17;100760.09;;;0.10;100.00
2268;BME280;11052;43.338;25.502;2024-03-23T04:15:44;100754.22;;;0.14;100.00
2268;BME280;11052;43.338;25.502;2024-03-23T04:18:10;100760.16;;;0.13;100.00
2268;BME280;11052;43.338;25.502;2024-03-23T04:20:37;100761.09;;;0.18;100.00
2268;BME280;11052;43.338;25.502;2024-03-23T04:23:04;100760.06;;;0.08;100.00
2268;BME280;11052;43.338;25.502;2024-03-23T04:25:31;100759.28;;;0.12;100.00
2268;BME280;11052;43.338;25.502;2024-03-23T04:27:57;100765.22;;;0.11;100.00
2268;BME280;11052;43.338;25.502;2024-03-23T04:30:24;100766.03;;;0.10;100.00
2268;BME280;11052;43.338;25.502;2024-03-23T04:32:53;100765.97;;;0.07;100.00
2268;BME280;11052;43.338;25.502;2024-03-23T04:35:20;100765.97;;;0.06;100.00
2268;BME280;11052;43.338;25.502;2024-03-23T04:37:47;100759.97;;;0.04;100.00
2268;BME280;11052;43.338;25.502;2024-03-23T04:40:16;100766.22;;;0.19;100.00
2268;BME280;11052;43.338;25.502;2024-03-23T04:42:43;100765.72;;;0.37;100.00
2268;BME280;11052;43.338;25.502;2024-03-23T04:45:10;100767.84;;;0.61;100.00
2268;BME280;11052;43.338;25.502;2024-03-23T04:47:37;100760.66;;;0.88;100.00
2268;BME280;11052;43.338;25.502;2024-03-23T04:50:05;100771.44;;;1.25;100.00
2268;BME280;11052;43.338;25.502;2024-03-23T04:52:32;100768.50;;;1.56;100.00
2268;BME280;11052;43.338;25.502;2024-03-23T04:54:59;100772.31;;;1.87;100.00
2268;BME280;11052;43.338;25.502;2024-03-23T04:57:27;100772.75;;;2.24;100.00
2268;BME280;11052;43.338;25.502;2024-03-23T04:59:53;100768.84;;;2.61;100.00
2268;BME280;11052;43.338;25.502;2024-03-23T05:02:21;100760.53;;;2.85;100.00
2268;BME280;11052;43.338;25.502;2024-03-23T05:04:46;100758.19;;;3.11;100.00
2268;BME280;11052;43.338;25.502;2024-03-23T05:07:14;100758.44;;;3.44;100.00
2268;BME280;11052;43.338;25.502;2024-03-23T05:09:39;100762.03;;;3.80;100.00
2268;BME280;11052;43.338;25.502;2024-03-23T05:12:07;100753.63;;;4.11;100.00
2268;BME280;11052;43.338;25.502;2024-03-23T05:14:34;100757.06;;;4.35;100.00
2268;BME280;11052;43.338;25.502;2024-03-23T05:17:01;100748.56;;;4.54;100.00
2268;BME280;11052;43.338;25.502;2024-03-23T05:19:28;100748.59;;;4.81;100.00
2268;BME280;11052;43.338;25.502;2024-03-23T05:21:55;100752.88;;;4.98;100.00
2268;BME280;11052;43.338;25.502;2024-03-23T05:24:21;100753.75;;;5.16;100.00
2268;BME280;11052;43.338;25.502;2024-03-23T05:26:48;100755.41;;;5.37;100.00
2268;BME280;11052;43.338;25.502;2024-03-23T05:29:14;100752.81;;;5.55;100.00
2268;BME280;11052;43.338;25.502;2024-03-23T05:31:44;100752.72;;;5.86;100.00
2268;BME280;11052;43.338;25.502;2024-03-23T05:34:15;100756.13;;;6.00;100.00
2268;BME280;11052;43.338;25.502;2024-03-23T05:36:42;100752.63;;;6.09;100.00
2268;BME280;11052;43.338;25.502;2024-03-23T05:39:08;100747.44;;;6.19;100.00
2268;BME280;11052;43.338;25.502;2024-03-23T05:41:35;100741.25;;;6.51;100.00
2268;BME280;11052;43.338;25.502;2024-03-23T05:44:02;100741.03;;;6.81;100.00
2268;BME280;11052;43.338;25.502;2024-03-23T05:46:29;100740.66;;;7.22;100.00
2268;BME280;11052;43.338;25.502;2024-03-23T05:49:01;100739.38;;;7.66;98.06
2268;BME280;11052;43.338;25.502;2024-03-23T05:51:29;100733.22;;;7.78;95.58
2268;BME280;11052;43.338;25.502;2024-03-23T05:53:55;100732.88;;;8.02;97.75
2268;BME280;11052;43.338;25.502;2024-03-23T05:56:22;100731.69;;;8.28;92.55
2268;BME280;11052;43.338;25.502;2024-03-23T05:58:48;100734.22;;;8.31;93.75
2268;BME280;11052;43.338;25.502;2024-03-23T06:01:15;100724.53;;;8.49;93.78
2268;BME280;11052;43.338;25.502;2024-03-23T06:03:41;100728.72;;;8.58;91.55
2268;BME280;11052;43.338;25.502;2024-03-23T06:06:10;100723.22;;;8.76;92.29
2268;BME280;11052;43.338;25.502;2024-03-23T06:08:38;100717.47;;;9.11;93.81
2268;BME280;11052;43.338;25.502;2024-03-23T06:11:05;100719.63;;;9.36;91.57
2268;BME280;11052;43.338;25.502;2024-03-23T06:13:31;100720.84;;;9.61;89.23
2268;BME280;11052;43.338;25.502;2024-03-23T06:15:59;100716.59;;;10.00;91.23
2268;BME280;11052;43.338;25.502;2024-03-23T06:18:25;100713.94;;;10.05;91.16
2268;BME280;11052;43.338;25.502;2024-03-23T06:20:53;100709.97;;;10.29;90.98
2268;BME280;11052;43.338;25.502;2024-03-23T06:23:20;100705.47;;;10.37;89.81
2268;BME280;11052;43.338;25.502;2024-03-23T06:25:47;100702.63;;;10.83;89.33
2268;BME280;11052;43.338;25.502;2024-03-23T06:28:14;100704.00;;;11.61;86.62
2268;BME280;11052;43.338;25.502;2024-03-23T06:30:41;100699.88;;;11.87;85.39
2268;BME280;11052;43.338;25.502;2024-03-23T06:33:07;100694.41;;;12.24;81.51
2268;BME280;11052;43.338;25.502;2024-03-23T06:35:34;100701.97;;;12.03;80.20
2268;BME280;11052;43.338;25.502;2024-03-23T06:38:00;100706.09;;;12.10;81.55
2268;BME280;11052;43.338;25.502;2024-03-23T06:40:28;100698.50;;;12.31;76.83
2268;BME280;11052;43.338;25.502;2024-03-23T06:42:54;100705.66;;;11.96;80.77
2268;BME280;11052;43.338;25.502;2024-03-23T06:45:21;100697.66;;;12.30;81.69
2268;BME280;11052;43.338;25.502;2024-03-23T06:47:49;100697.34;;;12.41;81.84
2268;BME280;11052;43.338;25.502;2024-03-23T06:50:17;100702.59;;;13.19;81.14
2268;BME280;11052;43.338;25.502;2024-03-23T06:52:43;100693.28;;;13.61;76.52
2268;BME280;11052;43.338;25.502;2024-03-23T06:55:10;100695.78;;;13.64;74.75
2268;BME280;11052;43.338;25.502;2024-03-23T06:57:37;100701.84;;;13.65;75.94
2268;BME280;11052;43.338;25.502;2024-03-23T07:00:05;100693.19;;;13.39;76.91
2268;BME280;11052;43.338;25.502;2024-03-23T07:02:35;100694.56;;;13.25;75.42
2268;BME280;11052;43.338;25.502;2024-03-23T07:05:03;100685.88;;;13.74;75.60
2268;BME280;11052;43.338;25.502;2024-03-23T07:07:29;100683.38;;;14.16;72.42
2268;BME280;11052;43.338;25.502;2024-03-23T07:09:56;100686.84;;;14.17;70.91
2268;BME280;11052;43.338;25.502;2024-03-23T07:12:22;100682.66;;;14.34;72.11
2268;BME280;11052;43.338;25.502;2024-03-23T07:14:51;100677.28;;;14.61;75.49
2268;BME280;11052;43.338;25.502;2024-03-23T07:17:17;100675.41;;;14.64;71.04
2268;BME280;11052;43.338;25.502;2024-03-23T07:19:46;100672.50;;;14.50;69.78
2268;BME280;11052;43.338;25.502;2024-03-23T07:22:12;100669.94;;;14.70;70.56
2268;BME280;11052;43.338;25.502;2024-03-23T07:24:40;100673.34;;;15.13;72.14
2268;BME280;11052;43.338;25.502;2024-03-23T07:27:06;100660.72;;;15.23;68.45
2268;BME280;11052;43.338;25.502;2024-03-23T07:29:35;100665.88;;;14.84;68.05
2268;BME280;11052;43.338;25.502;2024-03-23T07:32:03;100664.00;;;15.07;69.42
2268;BME280;11052;43.338;25.502;2024-03-23T07:34:30;100650.13;;;15.46;66.14
2268;BME280;11052;43.338;25.502;2024-03-23T07:36:57;100655.06;;;15.13;66.29
2268;BME280;11052;43.338;25.502;2024-03-23T07:39:24;100653.44;;;15.50;66.80
2268;BME280;11052;43.338;25.502;2024-03-23T07:41:50;100651.06;;;16.20;67.42
2268;BME280;11052;43.338;25.502;2024-03-23T07:44:17;100646.63;;;16.57;63.94
2268;BME280;11052;43.338;25.502;2024-03-23T07:46:43;100651.16;;;16.53;63.56
2268;BME280;11052;43.338;25.502;2024-03-23T07:49:11;100644.41;;;16.13;64.86
2268;BME280;11052;43.338;25.502;2024-03-23T07:51:37;100635.09;;;16.08;62.95
2268;BME280;11052;43.338;25.502;2024-03-23T07:54:05;100633.31;;;16.08;64.44
2268;BME280;11052;43.338;25.502;2024-03-23T07:56:31;100638.69;;;16.24;60.56
2268;BME280;11052;43.338;25.502;2024-03-23T07:58:58;100643.50;;;16.14;62.25
2268;BME280;11052;43.338;25.502;2024-03-23T08:01:24;100636.22;;;16.21;60.74
2268;BME280;11052;43.338;25.502;2024-03-23T08:03:51;100642.69;;;16.48;64.72
2268;BME280;11052;43.338;25.502;2024-03-23T08:06:19;100637.88;;;16.41;61.70
2268;BME280;11052;43.338;25.502;2024-03-23T08:08:55;100634.94;;;16.64;62.18
2268;BME280;11052;43.338;25.502;2024-03-23T08:11:25;100631.81;;;16.92;64.41
2268;BME280;11052;43.338;25.502;2024-03-23T08:13:52;100637.38;;;16.86;59.07
2268;BME280;11052;43.338;25.502;2024-03-23T08:16:19;100626.03;;;16.68;58.83
2268;BME280;11052;43.338;25.502;2024-03-23T08:18:46;100621.34;;;16.92;58.68
2268;BME280;11052;43.338;25.502;2024-03-23T08:21:12;100617.91;;;17.40;60.61
2268;BME280;11052;43.338;25.502;2024-03-23T08:23:41;100613.84;;;17.99;57.65
2268;BME280;11052;43.338;25.502;2024-03-23T08:26:09;100612.94;;;18.30;52.29
2268;BME280;11052;43.338;25.502;2024-03-23T08:28:37;100611.59;;;18.23;42.32
2268;BME280;11052;43.338;25.502;2024-03-23T08:31:05;100609.03;;;18.07;45.50
2268;BME280;11052;43.338;25.502;2024-03-23T08:33:32;100607.63;;;18.31;45.37
2268;BME280;11052;43.338;25.502;2024-03-23T08:35:59;100612.28;;;18.56;45.58
2268;BME280;11052;43.338;25.502;2024-03-23T08:38:28;100605.88;;;18.62;40.42
2268;BME280;11052;43.338;25.502;2024-03-23T08:40:59;100602.91;;;18.52;39.36
2268;BME280;11052;43.338;25.502;2024-03-23T08:43:26;100601.38;;;18.64;44.90
2268;BME280;11052;43.338;25.502;2024-03-23T08:45:52;100604.91;;;18.93;40.92
2268;BME280;11052;43.338;25.502;2024-03-23T08:48:20;100604.91;;;19.07;39.92
2268;BME280;11052;43.338;25.502;2024-03-23T08:50:46;100598.63;;;19.24;40.40
2268;BME280;11052;43.338;25.502;2024-03-23T08:53:14;100605.88;;;19.63;43.17
2268;BME280;11052;43.338;25.502;2024-03-23T08:55:40;100590.06;;;19.77;40.86
2268;BME280;11052;43.338;25.502;2024-03-23T08:58:09;100595.06;;;19.25;37.65
2268;BME280;11052;43.338;25.502;2024-03-23T09:00:35;100586.53;;;18.93;39.71
2268;BME280;11052;43.338;25.502;2024-03-23T09:03:02;100586.72;;;18.90;39.91
2268;BME280;11052;43.338;25.502;2024-03-23T09:05:30;100581.47;;;19.04;42.55
2268;BME280;11052;43.338;25.502;2024-03-23T09:08:01;100579.56;;;19.35;38.15
2268;BME280;11052;43.338;25.502;2024-03-23T09:10:27;100566.34;;;19.22;40.43
2268;BME280;11052;43.338;25.502;2024-03-23T09:12:54;100573.56;;;18.90;38.01
2268;BME280;11052;43.338;25.502;2024-03-23T09:15:22;100574.94;;;18.67;37.35
2268;BME280;11052;43.338;25.502;2024-03-23T09:17:49;100571.22;;;18.85;41.46
2268;BME280;11052;43.338;25.502;2024-03-23T09:20:15;100560.53;;;19.03;42.63
2268;BME280;11052;43.338;25.502;2024-03-23T09:22:42;100558.81;;;19.16;44.16
2268;BME280;11052;43.338;25.502;2024-03-23T09:25:08;100552.41;;;19.48;47.77
2268;BME280;11052;43.338;25.502;2024-03-23T09:27:35;100552.50;;;19.75;46.02
2268;BME280;11052;43.338;25.502;2024-03-23T09:30:01;100548.63;;;19.81;41.57
2268;BME280;11052;43.338;25.502;2024-03-23T09:32:30;100545.28;;;19.64;40.82
2268;BME280;11052;43.338;25.502;2024-03-23T09:34:56;100537.78;;;19.58;43.31
2268;BME280;11052;43.338;25.502;2024-03-23T09:37:23;100532.59;;;19.71;42.27
2268;BME280;11052;43.338;25.502;2024-03-23T09:39:49;100526.34;;;19.86;42.34
2268;BME280;11052;43.338;25.502;2024-03-23T09:42:16;100527.78;;;20.17;42.65
2268;BME280;11052;43.338;25.502;2024-03-23T09:44:43;100528.16;;;20.38;40.78
2268;BME280;11052;43.338;25.502;2024-03-23T09:47:10;100519.56;;;20.61;41.61
2268;BME280;11052;43.338;25.502;2024-03-23T09:49:38;100514.59;;;20.44;39.15
2268;BME280;11052;43.338;25.502;2024-03-23T09:52:06;100516.06;;;20.48;40.17
2268;BME280;11052;43.338;25.502;2024-03-23T09:54:33;100521.53;;;20.45;40.31
2268;BME280;11052;43.338;25.502;2024-03-23T09:57:00;100516.06;;;20.48;43.49
2268;BME280;11052;43.338;25.502;2024-03-23T09:59:26;100506.38;;;20.74;40.79
2268;BME280;11052;43.338;25.502;2024-03-23T10:01:53;100499.00;;;20.67;38.78
2268;BME280;11052;43.338;25.502;2024-03-23T10:04:39;100507.63;;;20.94;42.16
2268;BME280;11052;43.338;25.502;2024-03-23T10:07:11;100493.16;;;21.00;40.94
2268;BME280;11052;43.338;25.502;2024-03-23T10:09:37;100489.38;;;20.91;37.69
2268;BME280;11052;43.338;25.502;2024-03-23T10:12:09;100493.50;;;20.82;37.86
2268;BME280;11052;43.338;25.502;2024-03-23T10:14:35;100472.09;;;20.87;40.31
2268;BME280;11052;43.338;25.502;2024-03-23T10:17:14;100477.16;;;20.90;38.65
2268;BME280;11052;43.338;25.502;2024-03-23T10:19:41;100472.31;;;20.84;38.79
2268;BME280;11052;43.338;25.502;2024-03-23T10:22:10;100463.06;;;20.66;38.89
2268;BME280;11052;43.338;25.502;2024-03-23T10:24:36;100459.34;;;20.81;42.29
2268;BME280;11052;43.338;25.502;2024-03-23T10:27:03;100451.09;;;20.98;40.91
2268;BME280;11052;43.338;25.502;2024-03-23T10:29:29;100446.59;;;20.87;39.71
2268;BME280;11052;43.338;25.502;2024-03-23T10:32:08;100439.72;;;20.98;40.47
2268;BME280;11052;43.338;25.502;2024-03-23T10:34:34;100434.50;;;21.21;39.27
2268;BME280;11052;43.338;25.502;2024-03-23T10:37:03;100428.63;;;21.42;40.19
2268;BME280;11052;43.338;25.502;2024-03-23T10:39:33;100428.34;;;21.34;38.50
2268;BME280;11052;43.338;25.502;2024-03-23T10:42:05;100426.91;;;21.30;36.53
2268;BME280;11052;43.338;25.502;2024-03-23T10:44:32;100415.13;;;21.10;37.22
2268;BME280;11052;43.338;25.502;2024-03-23T10:46:59;100413.34;;;20.61;34.89
2268;BME280;11052;43.338;25.502;2024-03-23T10:49:28;100410.59;;;20.63;36.07
2268;BME280;11052;43.338;25.502;2024-03-23T10:52:00;100408.56;;;20.79;37.21
2268;BME280;11052;43.338;25.502;2024-03-23T10:54:28;100402.00;;;20.84;37.56
2268;BME280;11052;43.338;25.502;2024-03-23T10:56:59;100392.97;;;21.12;40.46
2268;BME280;11052;43.338;25.502;2024-03-23T10:59:26;100390.53;;;21.46;40.37
2268;BME280;11052;43.338;25.502;2024-03-23T11:01:57;100390.38;;;21.71;39.23
2268;BME280;11052;43.338;25.502;2024-03-23T11:04:33;100397.53;;;21.58;39.63
2268;BME280;11052;43.338;25.502;2024-03-23T11:07:01;100389.91;;;21.77;40.62
2268;BME280;11052;43.338;25.502;2024-03-23T11:09:41;100371.91;;;21.71;35.43
2268;BME280;11052;43.338;25.502;2024-03-23T11:12:26;100371.28;;;21.56;38.05
2268;BME280;11052;43.338;25.502;2024-03-23T11:14:53;100373.34;;;21.16;35.66
2268;BME280;11052;43.338;25.502;2024-03-23T11:17:21;100365.53;;;21.15;35.82
2268;BME280;11052;43.338;25.502;2024-03-23T11:19:53;100356.81;;;21.38;39.25
2268;BME280;11052;43.338;25.502;2024-03-23T11:22:42;100355.66;;;21.06;35.20
2268;BME280;11052;43.338;25.502;2024-03-23T11:25:14;100348.53;;;20.95;36.49
2268;BME280;11052;43.338;25.502;2024-03-23T11:27:42;100346.03;;;20.81;35.93
2268;BME280;11052;43.338;25.502;2024-03-23T11:30:16;100338.28;;;20.79;36.28
2268;BME280;11052;43.338;25.502;2024-03-23T11:32:44;100334.91;;;20.77;36.94
2268;BME280;11052;43.338;25.502;2024-03-23T11:35:11;100328.63;;;20.67;37.94
2268;BME280;11052;43.338;25.502;2024-03-23T11:38:07;100318.25;;;21.01;39.20
2268;BME280;11052;43.338;25.502;2024-03-23T11:40:36;100319.84;;;21.27;40.02
2268;BME280;11052;43.338;25.502;2024-03-23T11:43:05;100319.59;;;21.54;40.13
2268;BME280;11052;43.338;25.502;2024-03-23T11:45:35;100313.63;;;21.63;40.12
2268;BME280;11052;43.338;25.502;2024-03-23T11:48:05;100312.19;;;21.35;35.78
2268;BME280;11052;43.338;25.502;2024-03-23T11:50:31;100307.81;;;20.99;36.38
2268;BME280;11052;43.338;25.502;2024-03-23T11:53:18;100299.22;;;21.08;38.73
2268;BME280;11052;43.338;25.502;2024-03-23T11:55:47;100295.69;;;21.20;37.67
2268;BME280;11052;43.338;25.502;2024-03-23T11:58:16;100295.69;;;21.20;35.31
2268;BME280;11052;43.338;25.502;2024-03-23T12:00:42;100285.31;;;21.06;35.47
2268;BME280;11052;43.338;25.502;2024-03-23T12:03:09;100287.28;;;21.39;39.16
2268;BME280;11052;43.338;25.502;2024-03-23T12:05:36;100280.00;;;21.54;37.17
2268;BME280;11052;43.338;25.502;2024-03-23T12:08:17;100274.75;;;21.54;35.91
2268;BME280;11052;43.338;25.502;2024-03-23T12:10:47;100268.94;;;21.38;34.64
2268;BME280;11052;43.338;25.502;2024-03-23T12:13:16;100262.81;;;21.13;36.01
2268;BME280;11052;43.338;25.502;2024-03-23T12:15:43;100261.09;;;21.01;36.83
2268;BME280;11052;43.338;25.502;2024-03-23T12:18:11;100257.09;;;21.19;38.30
2268;BME280;11052;43.338;25.502;2024-03-23T12:20:37;100250.25;;;21.17;35.41
2268;BME280;11052;43.338;25.502;2024-03-23T12:23:05;100247.09;;;21.01;37.29
2268;BME280;11052;43.338;25.502;2024-03-23T12:25:32;100244.91;;;20.94;38.68
2268;BME280;11052;43.338;25.502;2024-03-23T12:28:00;100240.75;;;21.03;34.58
2268;BME280;11052;43.338;25.502;2024-03-23T12:30:27;100237.59;;;20.98;35.21
2268;BME280;11052;43.338;25.502;2024-03-23T12:32:54;100233.81;;;21.13;35.94
2268;BME280;11052;43.338;25.502;2024-03-23T12:35:20;100235.59;;;21.02;36.34
2268;BME280;11052;43.338;25.502;2024-03-23T12:37:47;100228.75;;;20.99;36.53
2268;BME280;11052;43.338;25.502;2024-03-23T12:40:13;100223.63;;;20.74;36.83
2268;BME280;11052;43.338;25.502;2024-03-23T12:42:40;100218.66;;;20.93;37.86
2268;BME280;11052;43.338;25.502;2024-03-23T12:45:08;100216.91;;;20.70;34.37
2268;BME280;11052;43.338;25.502;2024-03-23T12:47:35;100215.44;;;20.66;36.12
2268;BME280;11052;43.338;25.502;2024-03-23T12:50:02;100205.72;;;20.90;35.55
2268;BME280;11052;43.338;25.502;2024-03-23T12:52:29;100203.19;;;20.88;35.93
2268;BME280;11052;43.338;25.502;2024-03-23T12:54:55;100208.22;;;20.91;36.13
2268;BME280;11052;43.338;25.502;2024-03-23T12:57:23;100195.84;;;20.81;35.28
2268;BME280;11052;43.338;25.502;2024-03-23T12:59:50;100192.88;;;20.85;35.31
2268;BME280;11052;43.338;25.502;2024-03-23T13:02:20;100190.44;;;21.06;35.92
2268;BME280;11052;43.338;25.502;2024-03-23T13:04:49;100189.78;;;20.91;35.99
2268;BME280;11052;43.338;25.502;2024-03-23T13:07:16;100188.78;;;20.70;37.04
2268;BME280;11052;43.338;25.502;2024-03-23T13:09:44;100177.44;;;20.57;35.87
2268;BME280;11052;43.338;25.502;2024-03-23T13:12:11;100177.94;;;20.38;34.36
2268;BME280;11052;43.338;25.502;2024-03-23T13:14:38;100177.16;;;20.49;34.19
2268;BME280;11052;43.338;25.502;2024-03-23T13:17:05;100168.97;;;20.41;34.75
2268;BME280;11052;43.338;25.502;2024-03-23T13:19:33;100154.31;;;20.49;34.98
2268;BME280;11052;43.338;25.502;2024-03-23T13:22:00;100162.44;;;20.46;34.87
2268;BME280;11052;43.338;25.502;2024-03-23T13:24:27;100158.22;;;20.44;35.58
2268;BME280;11052;43.338;25.502;2024-03-23T13:26:55;100152.00;;;20.45;35.64
2268;BME280;11052;43.338;25.502;2024-03-23T13:29:22;100156.44;;;20.68;37.13
2268;BME280;11052;43.338;25.502;2024-03-23T13:31:50;100143.97;;;20.70;36.33
2268;BME280;11052;43.338;25.502;2024-03-23T13:34:17;100142.47;;;20.55;37.46
2268;BME280;11052;43.338;25.502;2024-03-23T13:36:46;100132.50;;;20.47;37.11
2268;BME280;11052;43.338;25.502;2024-03-23T13:39:14;100129.75;;;20.49;37.03
2268;BME280;11052;43.338;25.502;2024-03-23T13:41:42;100134.81;;;20.52;37.54
2268;BME280;11052;43.338;25.502;2024-03-23T13:44:09;100132.41;;;20.49;36.89
2268;BME280;11052;43.338;25.502;2024-03-23T13:46:37;100133.00;;;20.52;37.74